< < Back
Terminal Aerodrome Forecast


Current Version              Previous Versions:   1  2  3  4  5  6  7  8  9  

Terminal Aerodrome Forecast

035
FTUS42 KILM 242326
TAFILM
TAF
KILM 242326Z 2500/2524 24003KT P6SM SCT250
     FM251200 27007KT P6SM BKN250
     FM251800 19010G17KT P6SM SCT050 BKN250=

Latest METAR

634
SAUS70 KWBC 250856
MTRILM
METAR KILM 250853Z AUTO 00000KT 10SM CLR 16/15 A3019 RMK AO2 SLP223
T01610150 53006


USA.gov is the U.S. government's official web portal to all federal, state and local government web resources and services.